sensor_id;sensor_type;location;lat;lon;timestamp;pressure;altitude;pressure_sealevel;temperature;humidity
28131;BME280;15418;42.634;23.374;2022-10-16T00:02:07;94942.84;;;9.23;100.00
28131;BME280;15418;42.634;23.374;2022-10-16T00:04:33;94941.66;;;9.13;100.00
28131;BME280;15418;42.634;23.374;2022-10-16T00:06:58;94889.25;;;8.65;100.00
28131;BME280;15418;42.634;23.374;2022-10-16T00:09:24;94971.34;;;9.08;100.00
28131;BME280;15418;42.634;23.374;2022-10-16T00:11:49;94932.75;;;8.91;100.00
28131;BME280;15418;42.634;23.374;2022-10-16T00:14:15;94963.28;;;9.13;100.00
28131;BME280;15418;42.634;23.374;2022-10-16T00:16:41;94956.09;;;8.97;100.00
28131;BME280;15418;42.634;23.374;2022-10-16T00:19:07;94954.72;;;8.94;100.00
28131;BME280;15418;42.634;23.374;2022-10-16T00:21:33;94895.13;;;8.62;100.00
28131;BME280;15418;42.634;23.374;2022-10-16T00:24:03;94957.16;;;8.96;100.00
28131;BME280;15418;42.634;23.374;2022-10-16T00:26:31;94966.91;;;8.97;100.00
28131;BME280;15418;42.634;23.374;2022-10-16T00:28:57;94918.09;;;8.42;100.00
28131;BME280;15418;42.634;23.374;2022-10-16T00:31:23;94974.50;;;8.78;100.00
28131;BME280;15418;42.634;23.374;2022-10-16T00:33:50;94983.56;;;8.89;100.00
28131;BME280;15418;42.634;23.374;2022-10-16T00:36:19;94948.75;;;8.70;100.00
28131;BME280;15418;42.634;23.374;2022-10-16T00:38:45;94985.94;;;9.07;100.00
28131;BME280;15418;42.634;23.374;2022-10-16T00:41:13;94979.91;;;9.00;100.00
28131;BME280;15418;42.634;23.374;2022-10-16T00:43:43;94989.53;;;8.91;100.00
28131;BME280;15418;42.634;23.374;2022-10-16T00:48:54;94977.31;;;9.10;100.00
28131;BME280;15418;42.634;23.374;2022-10-16T00:51:26;94977.53;;;8.81;100.00
28131;BME280;15418;42.634;23.374;2022-10-16T00:53:53;94926.38;;;8.75;100.00
28131;BME280;15418;42.634;23.374;2022-10-16T00:56:20;94977.91;;;9.17;100.00
28131;BME280;15418;42.634;23.374;2022-10-16T00:58:45;94913.44;;;8.37;100.00
28131;BME280;15418;42.634;23.374;2022-10-16T01:01:11;94947.72;;;8.54;100.00
28131;BME280;15418;42.634;23.374;2022-10-16T01:03:37;94986.56;;;8.70;100.00
28131;BME280;15418;42.634;23.374;2022-10-16T01:06:21;94969.03;;;8.50;100.00
28131;BME280;15418;42.634;23.374;2022-10-16T01:14:27;94993.72;;;8.59;100.00
28131;BME280;15418;42.634;23.374;2022-10-16T01:18:18;94999.31;;;8.35;100.00
28131;BME280;15418;42.634;23.374;2022-10-16T01:20:27;94972.63;;;8.56;100.00
28131;BME280;15418;42.634;23.374;2022-10-16T01:26:11;94987.22;;;8.77;100.00
28131;BME280;15418;42.634;23.374;2022-10-16T01:29:29;94955.53;;;8.73;100.00
28131;BME280;15418;42.634;23.374;2022-10-16T01:32:02;94965.00;;;8.75;100.00
28131;BME280;15418;42.634;23.374;2022-10-16T01:34:33;94978.09;;;8.83;100.00
28131;BME280;15418;42.634;23.374;2022-10-16T01:37:09;94966.38;;;9.00;100.00
28131;BME280;15418;42.634;23.374;2022-10-16T01:39:37;94940.75;;;8.80;100.00
28131;BME280;15418;42.634;23.374;2022-10-16T01:42:08;94968.97;;;8.90;100.00
28131;BME280;15418;42.634;23.374;2022-10-16T01:44:35;94923.16;;;8.56;100.00
28131;BME280;15418;42.634;23.374;2022-10-16T01:47:03;94914.03;;;8.62;100.00
28131;BME280;15418;42.634;23.374;2022-10-16T01:49:34;94960.50;;;8.81;100.00
28131;BME280;15418;42.634;23.374;2022-10-16T01:52:09;94940.94;;;8.51;100.00
28131;BME280;15418;42.634;23.374;2022-10-16T01:54:37;94955.25;;;8.74;100.00
28131;BME280;15418;42.634;23.374;2022-10-16T01:57:06;94968.91;;;8.84;100.00
28131;BME280;15418;42.634;23.374;2022-10-16T01:59:35;94930.25;;;8.62;100.00
28131;BME280;15418;42.634;23.374;2022-10-16T02:02:06;94986.94;;;8.79;100.00
28131;BME280;15418;42.634;23.374;2022-10-16T02:04:38;94957.84;;;8.86;100.00
28131;BME280;15418;42.634;23.374;2022-10-16T02:07:05;94981.09;;;9.09;100.00
28131;BME280;15418;42.634;23.374;2022-10-16T02:09:33;94977.00;;;9.07;100.00
28131;BME280;15418;42.634;23.374;2022-10-16T02:12:01;94960.66;;;8.96;100.00
28131;BME280;15418;42.634;23.374;2022-10-16T02:14:29;94976.31;;;9.16;100.00
28131;BME280;15418;42.634;23.374;2022-10-16T02:16:56;94987.19;;;9.22;100.00
28131;BME280;15418;42.634;23.374;2022-10-16T02:19:21;94998.22;;;9.20;100.00
28131;BME280;15418;42.634;23.374;2022-10-16T02:22:00;95007.63;;;9.12;100.00
28131;BME280;15418;42.634;23.374;2022-10-16T02:24:33;95005.28;;;8.99;100.00
28131;BME280;15418;42.634;23.374;2022-10-16T02:29:40;95004.97;;;8.73;100.00
28131;BME280;15418;42.634;23.374;2022-10-16T02:32:12;95008.19;;;8.70;100.00
28131;BME280;15418;42.634;23.374;2022-10-16T02:34:39;94998.22;;;8.53;100.00
28131;BME280;15418;42.634;23.374;2022-10-16T02:37:06;94986.56;;;8.31;100.00
28131;BME280;15418;42.634;23.374;2022-10-16T02:39:32;94929.03;;;7.91;100.00
28131;BME280;15418;42.634;23.374;2022-10-16T02:41:58;95008.91;;;8.26;100.00
28131;BME280;15418;42.634;23.374;2022-10-16T02:44:24;94951.28;;;7.81;100.00
28131;BME280;15418;42.634;23.374;2022-10-16T02:46:49;95015.41;;;8.08;100.00
28131;BME280;15418;42.634;23.374;2022-10-16T02:49:15;95011.72;;;7.97;100.00
28131;BME280;15418;42.634;23.374;2022-10-16T02:51:40;94994.47;;;7.81;100.00
28131;BME280;15418;42.634;23.374;2022-10-16T02:54:06;94986.91;;;7.83;100.00
28131;BME280;15418;42.634;23.374;2022-10-16T02:56:31;94990.13;;;7.80;100.00
28131;BME280;15418;42.634;23.374;2022-10-16T02:58:57;95011.38;;;7.94;100.00
28131;BME280;15418;42.634;23.374;2022-10-16T03:01:23;95026.41;;;7.89;100.00
28131;BME280;15418;42.634;23.374;2022-10-16T03:03:49;95008.84;;;7.70;100.00
28131;BME280;15418;42.634;23.374;2022-10-16T03:06:14;95020.28;;;7.94;100.00
28131;BME280;15418;42.634;23.374;2022-10-16T03:08:40;95040.25;;;7.76;100.00
28131;BME280;15418;42.634;23.374;2022-10-16T03:11:05;94997.63;;;7.61;100.00
28131;BME280;15418;42.634;23.374;2022-10-16T03:13:31;95026.84;;;7.81;100.00
28131;BME280;15418;42.634;23.374;2022-10-16T03:15:56;95011.34;;;7.60;100.00
28131;BME280;15418;42.634;23.374;2022-10-16T03:18:21;95036.47;;;7.60;100.00
28131;BME280;15418;42.634;23.374;2022-10-16T03:20:47;95025.13;;;7.46;100.00
28131;BME280;15418;42.634;23.374;2022-10-16T03:23:12;95035.25;;;7.39;100.00
28131;BME280;15418;42.634;23.374;2022-10-16T03:25:38;95032.03;;;7.25;100.00
28131;BME280;15418;42.634;23.374;2022-10-16T03:28:03;95035.88;;;7.29;100.00
28131;BME280;15418;42.634;23.374;2022-10-16T03:30:29;95023.47;;;7.28;100.00
28131;BME280;15418;42.634;23.374;2022-10-16T03:32:54;95033.84;;;7.36;100.00
28131;BME280;15418;42.634;23.374;2022-10-16T03:35:21;95035.69;;;7.19;100.00
28131;BME280;15418;42.634;23.374;2022-10-16T03:37:47;95027.94;;;7.22;100.00
28131;BME280;15418;42.634;23.374;2022-10-16T03:40:12;95049.19;;;7.48;100.00
28131;BME280;15418;42.634;23.374;2022-10-16T03:42:38;95035.59;;;7.43;100.00
28131;BME280;15418;42.634;23.374;2022-10-16T03:45:04;95049.47;;;7.34;100.00
28131;BME280;15418;42.634;23.374;2022-10-16T03:47:29;95012.75;;;7.16;100.00
28131;BME280;15418;42.634;23.374;2022-10-16T03:49:55;95049.50;;;7.51;100.00
28131;BME280;15418;42.634;23.374;2022-10-16T03:52:21;95031.28;;;7.42;100.00
28131;BME280;15418;42.634;23.374;2022-10-16T03:54:46;95028.41;;;6.90;100.00
28131;BME280;15418;42.634;23.374;2022-10-16T03:57:12;95046.47;;;7.19;100.00
28131;BME280;15418;42.634;23.374;2022-10-16T03:59:37;95044.91;;;7.35;100.00
28131;BME280;15418;42.634;23.374;2022-10-16T04:02:03;95046.72;;;7.46;100.00
28131;BME280;15418;42.634;23.374;2022-10-16T04:04:28;95020.34;;;7.19;100.00
28131;BME280;15418;42.634;23.374;2022-10-16T04:06:53;95013.84;;;7.32;100.00
28131;BME280;15418;42.634;23.374;2022-10-16T04:09:19;95003.84;;;7.33;100.00
28131;BME280;15418;42.634;23.374;2022-10-16T04:11:44;95031.78;;;7.55;100.00
28131;BME280;15418;42.634;23.374;2022-10-16T04:14:10;94980.16;;;6.89;100.00
28131;BME280;15418;42.634;23.374;2022-10-16T04:16:35;95037.09;;;7.50;100.00
28131;BME280;15418;42.634;23.374;2022-10-16T04:19:01;95012.31;;;7.53;100.00
28131;BME280;15418;42.634;23.374;2022-10-16T04:21:26;95019.63;;;7.70;100.00
28131;BME280;15418;42.634;23.374;2022-10-16T04:23:51;95020.41;;;7.53;100.00
28131;BME280;15418;42.634;23.374;2022-10-16T04:26:17;94984.75;;;7.34;100.00
28131;BME280;15418;42.634;23.374;2022-10-16T04:28:42;95039.59;;;7.69;100.00
28131;BME280;15418;42.634;23.374;2022-10-16T04:31:08;95003.53;;;7.29;100.00
28131;BME280;15418;42.634;23.374;2022-10-16T04:33:33;95022.03;;;7.37;100.00
28131;BME280;15418;42.634;23.374;2022-10-16T04:36:00;95051.41;;;7.51;100.00
28131;BME280;15418;42.634;23.374;2022-10-16T04:38:26;95055.56;;;7.59;100.00
28131;BME280;15418;42.634;23.374;2022-10-16T04:40:52;95024.28;;;7.29;100.00
28131;BME280;15418;42.634;23.374;2022-10-16T04:43:18;95058.91;;;6.79;100.00
28131;BME280;15418;42.634;23.374;2022-10-16T04:45:43;95065.66;;;6.94;100.00
28131;BME280;15418;42.634;23.374;2022-10-16T04:48:09;95058.03;;;7.02;100.00
28131;BME280;15418;42.634;23.374;2022-10-16T04:50:34;95065.53;;;7.29;100.00
28131;BME280;15418;42.634;23.374;2022-10-16T04:53:00;95058.94;;;7.08;100.00
28131;BME280;15418;42.634;23.374;2022-10-16T04:55:25;95074.38;;;7.24;100.00
28131;BME280;15418;42.634;23.374;2022-10-16T04:57:51;95070.22;;;7.34;100.00
28131;BME280;15418;42.634;23.374;2022-10-16T05:00:16;95065.78;;;7.28;100.00
28131;BME280;15418;42.634;23.374;2022-10-16T05:02:42;95057.03;;;7.20;100.00
28131;BME280;15418;42.634;23.374;2022-10-16T05:05:07;95063.25;;;7.21;100.00
28131;BME280;15418;42.634;23.374;2022-10-16T05:07:33;95073.50;;;7.36;100.00
28131;BME280;15418;42.634;23.374;2022-10-16T05:09:58;95061.06;;;7.35;100.00
28131;BME280;15418;42.634;23.374;2022-10-16T05:12:24;95075.97;;;6.97;100.00
28131;BME280;15418;42.634;23.374;2022-10-16T05:14:49;95081.50;;;7.31;100.00
28131;BME280;15418;42.634;23.374;2022-10-16T05:17:14;95094.09;;;7.54;100.00
28131;BME280;15418;42.634;23.374;2022-10-16T05:19:40;95074.19;;;7.43;100.00
28131;BME280;15418;42.634;23.374;2022-10-16T05:22:05;95079.75;;;7.24;100.00
28131;BME280;15418;42.634;23.374;2022-10-16T05:24:31;95081.69;;;7.41;100.00
28131;BME280;15418;42.634;23.374;2022-10-16T05:26:56;95102.81;;;7.61;100.00
28131;BME280;15418;42.634;23.374;2022-10-16T05:29:22;95108.78;;;7.75;100.00
28131;BME280;15418;42.634;23.374;2022-10-16T05:31:52;95102.44;;;7.69;100.00
28131;BME280;15418;42.634;23.374;2022-10-16T05:34:19;95091.03;;;7.79;100.00
28131;BME280;15418;42.634;23.374;2022-10-16T05:36:46;95067.31;;;7.52;100.00
28131;BME280;15418;42.634;23.374;2022-10-16T05:39:12;95063.72;;;7.47;100.00
28131;BME280;15418;42.634;23.374;2022-10-16T05:41:38;95096.66;;;7.78;100.00
28131;BME280;15418;42.634;23.374;2022-10-16T05:44:04;95086.69;;;7.78;100.00
28131;BME280;15418;42.634;23.374;2022-10-16T05:46:31;95090.63;;;7.87;100.00
28131;BME280;15418;42.634;23.374;2022-10-16T05:48:56;95059.53;;;7.68;100.00
28131;BME280;15418;42.634;23.374;2022-10-16T05:51:21;95094.84;;;7.83;100.00
28131;BME280;15418;42.634;23.374;2022-10-16T05:53:47;95101.84;;;7.96;100.00
28131;BME280;15418;42.634;23.374;2022-10-16T05:56:12;95090.69;;;7.76;100.00
28131;BME280;15418;42.634;23.374;2022-10-16T05:58:39;95117.47;;;7.94;100.00
28131;BME280;15418;42.634;23.374;2022-10-16T06:01:18;95105.53;;;7.61;100.00
28131;BME280;15418;42.634;23.374;2022-10-16T06:03:46;95132.97;;;7.70;100.00
28131;BME280;15418;42.634;23.374;2022-10-16T06:06:22;95131.75;;;7.78;100.00
28131;BME280;15418;42.634;23.374;2022-10-16T06:08:48;95140.31;;;7.75;100.00
28131;BME280;15418;42.634;23.374;2022-10-16T06:11:22;95124.97;;;7.75;100.00
28131;BME280;15418;42.634;23.374;2022-10-16T06:13:55;95108.78;;;7.75;100.00
28131;BME280;15418;42.634;23.374;2022-10-16T06:16:26;95125.88;;;7.98;100.00
28131;BME280;15418;42.634;23.374;2022-10-16T06:18:53;95103.41;;;7.92;100.00
28131;BME280;15418;42.634;23.374;2022-10-16T06:21:23;95150.56;;;8.35;100.00
28131;BME280;15418;42.634;23.374;2022-10-16T06:23:53;95142.34;;;9.60;100.00
28131;BME280;15418;42.634;23.374;2022-10-16T06:26:21;95167.81;;;9.86;100.00
28131;BME280;15418;42.634;23.374;2022-10-16T06:28:47;95142.72;;;9.46;100.00
28131;BME280;15418;42.634;23.374;2022-10-16T06:31:13;95132.47;;;9.26;100.00
28131;BME280;15418;42.634;23.374;2022-10-16T06:33:39;95148.03;;;8.97;100.00
28131;BME280;15418;42.634;23.374;2022-10-16T06:36:08;95118.72;;;8.89;100.00
28131;BME280;15418;42.634;23.374;2022-10-16T06:38:34;95162.06;;;9.16;100.00
28131;BME280;15418;42.634;23.374;2022-10-16T06:40:59;95152.59;;;8.96;100.00
28131;BME280;15418;42.634;23.374;2022-10-16T06:43:26;95167.63;;;8.70;100.00
28131;BME280;15418;42.634;23.374;2022-10-16T06:45:55;95162.72;;;8.67;100.00
28131;BME280;15418;42.634;23.374;2022-10-16T06:48:23;95169.22;;;9.05;100.00
28131;BME280;15418;42.634;23.374;2022-10-16T06:53:21;95169.81;;;9.07;100.00
28131;BME280;15418;42.634;23.374;2022-10-16T06:55:47;95145.09;;;8.81;100.00
28131;BME280;15418;42.634;23.374;2022-10-16T06:58:12;95179.03;;;9.11;100.00
28131;BME280;15418;42.634;23.374;2022-10-16T07:00:37;95185.66;;;9.38;100.00
28131;BME280;15418;42.634;23.374;2022-10-16T07:03:03;95156.25;;;9.24;100.00
28131;BME280;15418;42.634;23.374;2022-10-16T07:05:28;95163.44;;;9.58;100.00
28131;BME280;15418;42.634;23.374;2022-10-16T07:07:54;95172.91;;;9.82;100.00
28131;BME280;15418;42.634;23.374;2022-10-16T07:10:19;95177.84;;;9.86;100.00
28131;BME280;15418;42.634;23.374;2022-10-16T07:12:45;95150.91;;;10.01;100.00
28131;BME280;15418;42.634;23.374;2022-10-16T07:15:10;95181.97;;;10.75;100.00
28131;BME280;15418;42.634;23.374;2022-10-16T07:17:35;95196.47;;;11.34;100.00
28131;BME280;15418;42.634;23.374;2022-10-16T07:20:01;95165.19;;;11.80;100.00
28131;BME280;15418;42.634;23.374;2022-10-16T07:22:28;95179.75;;;12.27;100.00
28131;BME280;15418;42.634;23.374;2022-10-16T07:24:53;95174.59;;;13.28;100.00
28131;BME280;15418;42.634;23.374;2022-10-16T07:27:19;95183.44;;;13.86;100.00
28131;BME280;15418;42.634;23.374;2022-10-16T07:29:47;95110.84;;;13.55;100.00
28131;BME280;15418;42.634;23.374;2022-10-16T07:32:12;95161.88;;;13.94;100.00
28131;BME280;15418;42.634;23.374;2022-10-16T07:34:38;95153.50;;;14.30;100.00
28131;BME280;15418;42.634;23.374;2022-10-16T07:37:03;95163.34;;;15.06;100.00
28131;BME280;15418;42.634;23.374;2022-10-16T07:39:29;95174.13;;;15.21;100.00
28131;BME280;15418;42.634;23.374;2022-10-16T07:41:54;95148.38;;;15.52;98.43
28131;BME280;15418;42.634;23.374;2022-10-16T07:44:20;95139.38;;;15.27;97.50
28131;BME280;15418;42.634;23.374;2022-10-16T07:46:45;95166.06;;;14.31;100.00
28131;BME280;15418;42.634;23.374;2022-10-16T07:49:11;95179.78;;;14.61;100.00
28131;BME280;15418;42.634;23.374;2022-10-16T07:51:36;95179.59;;;14.87;100.00
28131;BME280;15418;42.634;23.374;2022-10-16T07:54:03;95187.22;;;14.90;100.00
28131;BME280;15418;42.634;23.374;2022-10-16T07:56:30;95181.88;;;15.63;98.04
28131;BME280;15418;42.634;23.374;2022-10-16T07:58:56;95180.09;;;15.77;95.03
28131;BME280;15418;42.634;23.374;2022-10-16T08:01:21;95127.47;;;15.42;95.67
28131;BME280;15418;42.634;23.374;2022-10-16T08:03:49;95156.53;;;15.81;93.68
28131;BME280;15418;42.634;23.374;2022-10-16T08:06:15;95175.38;;;16.07;90.96
28131;BME280;15418;42.634;23.374;2022-10-16T08:08:41;95142.72;;;15.97;89.03
28131;BME280;15418;42.634;23.374;2022-10-16T08:11:07;95173.81;;;16.01;89.85
28131;BME280;15418;42.634;23.374;2022-10-16T08:13:33;95165.22;;;15.35;92.83
28131;BME280;15418;42.634;23.374;2022-10-16T08:15:58;95178.72;;;16.04;89.88
28131;BME280;15418;42.634;23.374;2022-10-16T08:18:24;95130.50;;;15.65;91.04
28131;BME280;15418;42.634;23.374;2022-10-16T08:20:59;95182.25;;;16.04;90.06
28131;BME280;15418;42.634;23.374;2022-10-16T08:23:26;95154.50;;;16.16;88.29
28131;BME280;15418;42.634;23.374;2022-10-16T08:25:53;95169.72;;;16.42;87.47
28131;BME280;15418;42.634;23.374;2022-10-16T08:28:19;95122.16;;;16.56;85.98
28131;BME280;15418;42.634;23.374;2022-10-16T08:30:44;95173.97;;;17.52;81.35
28131;BME280;15418;42.634;23.374;2022-10-16T08:33:10;95160.81;;;17.96;79.15
28131;BME280;15418;42.634;23.374;2022-10-16T08:35:35;95143.53;;;17.40;77.55
28131;BME280;15418;42.634;23.374;2022-10-16T08:38:03;95155.94;;;17.04;80.01
28131;BME280;15418;42.634;23.374;2022-10-16T08:40:30;95162.03;;;17.62;77.98
28131;BME280;15418;42.634;23.374;2022-10-16T08:43:18;95172.59;;;17.82;74.80
28131;BME280;15418;42.634;23.374;2022-10-16T08:51:02;95175.50;;;17.72;69.22
28131;BME280;15418;42.634;23.374;2022-10-16T08:53:52;95173.31;;;18.16;67.26
28131;BME280;15418;42.634;23.374;2022-10-16T08:56:18;95141.25;;;18.39;64.17
28131;BME280;15418;42.634;23.374;2022-10-16T08:58:45;95160.59;;;17.64;68.79
28131;BME280;15418;42.634;23.374;2022-10-16T09:01:14;95174.22;;;18.11;61.96
28131;BME280;15418;42.634;23.374;2022-10-16T09:06:47;95181.53;;;18.16;59.28
28131;BME280;15418;42.634;23.374;2022-10-16T09:09:35;95173.09;;;17.84;54.17
28131;BME280;15418;42.634;23.374;2022-10-16T09:12:09;95180.34;;;17.33;55.00
28131;BME280;15418;42.634;23.374;2022-10-16T09:17:30;95175.84;;;18.63;54.88
28131;BME280;15418;42.634;23.374;2022-10-16T09:23:27;95171.72;;;18.52;56.83
28131;BME280;15418;42.634;23.374;2022-10-16T09:25:54;95137.13;;;17.72;55.47
28131;BME280;15418;42.634;23.374;2022-10-16T09:28:20;95166.69;;;17.75;58.29
28131;BME280;15418;42.634;23.374;2022-10-16T09:30:47;95180.72;;;17.88;62.64
28131;BME280;15418;42.634;23.374;2022-10-16T09:33:15;95123.56;;;16.73;60.12
28131;BME280;15418;42.634;23.374;2022-10-16T09:35:45;95173.75;;;17.34;60.87
28131;BME280;15418;42.634;23.374;2022-10-16T09:38:34;95179.88;;;17.73;57.18
28131;BME280;15418;42.634;23.374;2022-10-16T09:43:46;95161.72;;;18.19;54.76
28131;BME280;15418;42.634;23.374;2022-10-16T09:48:49;95163.66;;;17.63;54.64
28131;BME280;15418;42.634;23.374;2022-10-16T09:51:23;95160.19;;;16.91;59.00
28131;BME280;15418;42.634;23.374;2022-10-16T09:53:54;95169.03;;;16.69;62.30
28131;BME280;15418;42.634;23.374;2022-10-16T09:56:25;95157.94;;;16.03;66.23
28131;BME280;15418;42.634;23.374;2022-10-16T09:58:54;95082.50;;;15.58;68.37
28131;BME280;15418;42.634;23.374;2022-10-16T10:01:21;95162.69;;;16.16;66.57
28131;BME280;15418;42.634;23.374;2022-10-16T10:03:48;95163.88;;;16.29;84.90
28131;BME280;15418;42.634;23.374;2022-10-16T10:06:28;95141.91;;;16.15;70.95
28131;BME280;15418;42.634;23.374;2022-10-16T10:08:56;95081.19;;;15.75;69.98
28131;BME280;15418;42.634;23.374;2022-10-16T10:11:56;95152.09;;;16.10;70.25
28131;BME280;15418;42.634;23.374;2022-10-16T10:14:40;95147.22;;;16.06;70.23
28131;BME280;15418;42.634;23.374;2022-10-16T10:17:24;95148.63;;;16.04;70.89
28131;BME280;15418;42.634;23.374;2022-10-16T10:20:01;95132.53;;;15.54;73.09
28131;BME280;15418;42.634;23.374;2022-10-16T10:28:03;95148.47;;;15.71;74.80
28131;BME280;15418;42.634;23.374;2022-10-16T10:33:33;95144.28;;;16.03;71.10
28131;BME280;15418;42.634;23.374;2022-10-16T10:39:18;95134.81;;;16.14;68.84
28131;BME280;15418;42.634;23.374;2022-10-16T10:42:04;95140.13;;;16.24;66.39
28131;BME280;15418;42.634;23.374;2022-10-16T10:50:26;95124.91;;;16.37;63.28
28131;BME280;15418;42.634;23.374;2022-10-16T10:55:56;95127.00;;;16.27;58.02
28131;BME280;15418;42.634;23.374;2022-10-16T10:58:53;95111.97;;;16.24;57.35
28131;BME280;15418;42.634;23.374;2022-10-16T11:02:09;95112.19;;;16.47;62.84
28131;BME280;15418;42.634;23.374;2022-10-16T11:07:11;95109.88;;;16.73;56.95
28131;BME280;15418;42.634;23.374;2022-10-16T11:09:41;95104.13;;;16.88;55.17
28131;BME280;15418;42.634;23.374;2022-10-16T11:12:29;95101.84;;;17.10;50.33
28131;BME280;15418;42.634;23.374;2022-10-16T11:17:39;95085.66;;;16.80;47.49
28131;BME280;15418;42.634;23.374;2022-10-16T11:20:24;95098.75;;;16.83;48.73
28131;BME280;15418;42.634;23.374;2022-10-16T11:23:05;95089.59;;;17.07;47.11
28131;BME280;15418;42.634;23.374;2022-10-16T11:25:33;95095.56;;;16.76;46.62
28131;BME280;15418;42.634;23.374;2022-10-16T11:28:15;95087.56;;;16.80;46.94
28131;BME280;15418;42.634;23.374;2022-10-16T11:31:07;95090.84;;;17.29;53.49
28131;BME280;15418;42.634;23.374;2022-10-16T11:33:38;95085.97;;;17.53;52.45
28131;BME280;15418;42.634;23.374;2022-10-16T11:44:21;95098.44;;;17.32;45.72
28131;BME280;15418;42.634;23.374;2022-10-16T11:47:11;95088.91;;;17.15;47.14
28131;BME280;15418;42.634;23.374;2022-10-16T11:49:39;95093.47;;;17.06;47.65
28131;BME280;15418;42.634;23.374;2022-10-16T11:55:15;95082.31;;;16.83;47.04
28131;BME280;15418;42.634;23.374;2022-10-16T11:57:47;95070.25;;;16.84;47.04
28131;BME280;15418;42.634;23.374;2022-10-16T12:00:31;95089.22;;;17.14;47.70
28131;BME280;15418;42.634;23.374;2022-10-16T12:08:20;95075.31;;;17.24;47.82
28131;BME280;15418;42.634;23.374;2022-10-16T12:10:48;95081.41;;;17.63;48.92
28131;BME280;15418;42.634;23.374;2022-10-16T12:16:20;95072.78;;;17.56;49.57
28131;BME280;15418;42.634;23.374;2022-10-16T12:18:47;95078.88;;;17.52;49.39
28131;BME280;15418;42.634;23.374;2022-10-16T12:21:15;95048.13;;;17.42;48.95
28131;BME280;15418;42.634;23.374;2022-10-16T12:23:52;95078.38;;;17.64;47.24
28131;BME280;15418;42.634;23.374;2022-10-16T12:26:24;95095.22;;;17.72;46.78
28131;BME280;15418;42.634;23.374;2022-10-16T12:28:51;95080.19;;;17.41;46.08
28131;BME280;15418;42.634;23.374;2022-10-16T12:31:16;95096.72;;;17.50;45.25
28131;BME280;15418;42.634;23.374;2022-10-16T12:34:02;95077.25;;;17.51;44.12
28131;BME280;15418;42.634;23.374;2022-10-16T12:36:32;95088.50;;;17.64;45.22
28131;BME280;15418;42.634;23.374;2022-10-16T12:38:59;95091.16;;;17.55;46.96
28131;BME280;15418;42.634;23.374;2022-10-16T12:41:34;95085.09;;;17.44;47.82
28131;BME280;15418;42.634;23.374;2022-10-16T12:44:01;95071.47;;;17.11;47.24
28131;BME280;15418;42.634;23.374;2022-10-16T12:49:19;95092.78;;;17.42;47.89
28131;BME280;15418;42.634;23.374;2022-10-16T12:51:46;95082.22;;;17.49;47.28
28131;BME280;15418;42.634;23.374;2022-10-16T12:54:15;95091.56;;;17.62;47.69
28131;BME280;15418;42.634;23.374;2022-10-16T13:04:29;95103.41;;;17.85;46.45
28131;BME280;15418;42.634;23.374;2022-10-16T13:07:25;95108.00;;;17.76;45.99
28131;BME280;15418;42.634;23.374;2022-10-16T13:10:06;95097.03;;;17.76;46.22
28131;BME280;15418;42.634;23.374;2022-10-16T13:15:22;95084.53;;;17.98;46.56
28131;BME280;15418;42.634;23.374;2022-10-16T13:17:56;95102.91;;;18.11;47.03
28131;BME280;15418;42.634;23.374;2022-10-16T13:23:34;95112.28;;;17.82;47.96
28131;BME280;15418;42.634;23.374;2022-10-16T13:26:16;95105.16;;;17.81;48.75
28131;BME280;15418;42.634;23.374;2022-10-16T13:28:46;95095.19;;;17.58;49.08
28131;BME280;15418;42.634;23.374;2022-10-16T13:31:22;95093.09;;;17.55;49.21
28131;BME280;15418;42.634;23.374;2022-10-16T13:33:51;95094.59;;;17.61;49.40
28131;BME280;15418;42.634;23.374;2022-10-16T13:41:40;95093.75;;;17.88;47.75
28131;BME280;15418;42.634;23.374;2022-10-16T13:44:14;95101.50;;;18.00;47.68
28131;BME280;15418;42.634;23.374;2022-10-16T13:46:40;95111.38;;;18.01;47.78
28131;BME280;15418;42.634;23.374;2022-10-16T13:49:15;95082.91;;;17.83;47.06
28131;BME280;15418;42.634;23.374;2022-10-16T13:51:54;95108.38;;;17.83;47.90
28131;BME280;15418;42.634;23.374;2022-10-16T13:54:19;95101.63;;;17.95;48.15
28131;BME280;15418;42.634;23.374;2022-10-16T13:56:45;95096.50;;;17.88;47.61
28131;BME280;15418;42.634;23.374;2022-10-16T13:59:33;95118.06;;;17.95;48.20
28131;BME280;15418;42.634;23.374;2022-10-16T14:02:00;95101.59;;;17.81;48.36
28131;BME280;15418;42.634;23.374;2022-10-16T14:04:32;95110.66;;;17.81;48.74
28131;BME280;15418;42.634;23.374;2022-10-16T14:06:58;95092.59;;;17.66;49.03
28131;BME280;15418;42.634;23.374;2022-10-16T14:09:27;95111.56;;;17.77;49.09
28131;BME280;15418;42.634;23.374;2022-10-16T14:11:57;95119.56;;;17.73;49.58
28131;BME280;15418;42.634;23.374;2022-10-16T14:14:24;95111.66;;;17.58;49.45
28131;BME280;15418;42.634;23.374;2022-10-16T14:16:50;95077.34;;;17.32;49.39
28131;BME280;15418;42.634;23.374;2022-10-16T14:19:22;95128.72;;;17.55;49.44
28131;BME280;15418;42.634;23.374;2022-10-16T14:21:50;95115.72;;;17.46;48.84
28131;BME280;15418;42.634;23.374;2022-10-16T14:24:42;95118.97;;;17.48;48.17
28131;BME280;15418;42.634;23.374;2022-10-16T14:27:30;95126.03;;;17.22;47.24
28131;BME280;15418;42.634;23.374;2022-10-16T14:30:26;95121.34;;;17.08;48.02
28131;BME280;15418;42.634;23.374;2022-10-16T14:33:00;95135.03;;;17.08;48.73
28131;BME280;15418;42.634;23.374;2022-10-16T14:35:35;95133.50;;;17.02;49.35
28131;BME280;15418;42.634;23.374;2022-10-16T14:38:02;95132.59;;;16.87;49.39
28131;BME280;15418;42.634;23.374;2022-10-16T14:40:31;95120.38;;;16.66;49.01
28131;BME280;15418;42.634;23.374;2022-10-16T14:42:57;95137.25;;;16.73;50.12
28131;BME280;15418;42.634;23.374;2022-10-16T14:45:27;95135.59;;;16.72;50.33
28131;BME280;15418;42.634;23.374;2022-10-16T14:47:57;95081.03;;;16.29;49.72